createdAt,value
2022-09-05T00:01:27.800Z,2.00
2022-09-05T00:04:15.530Z,2.30
2022-09-05T00:06:53.488Z,2.03
2022-09-05T00:09:28.210Z,2.20
2022-09-05T00:12:00.363Z,1.97
2022-09-05T00:15:16.729Z,1.77
2022-09-05T00:19:19.171Z,2.00
2022-09-05T00:24:21.561Z,2.10
2022-09-05T00:24:33.159Z,1.93
2022-09-05T00:26:24.307Z,2.00
2022-09-05T00:29:03.885Z,2.00
2022-09-05T00:31:55.989Z,1.90
2022-09-05T00:34:47.179Z,1.80
2022-09-05T00:37:27.807Z,1.80
2022-09-05T00:40:17.962Z,1.73
2022-09-05T00:42:49.509Z,1.90
2022-09-05T00:45:20.809Z,2.10
2022-09-05T00:47:54.933Z,2.00
2022-09-05T00:50:27.441Z,1.83
2022-09-05T00:53:06.646Z,2.00
2022-09-05T00:55:41.312Z,2.10
2022-09-05T00:58:17.849Z,1.93
2022-09-05T01:00:51.110Z,1.90
2022-09-05T01:03:41.335Z,1.80
2022-09-05T01:06:30.680Z,1.90
2022-09-05T01:09:12.779Z,2.00
2022-09-05T01:11:56.073Z,2.00
2022-09-05T01:14:32.212Z,2.00
2022-09-05T01:17:06.386Z,1.67
2022-09-05T01:19:43.172Z,1.53
2022-09-05T01:22:23.011Z,1.70
2022-09-05T01:25:06.026Z,1.70
2022-09-05T01:29:17.312Z,1.80
2022-09-05T01:30:39.749Z,1.57
2022-09-05T01:33:12.850Z,1.53
2022-09-05T01:36:03.591Z,1.80
2022-09-05T01:38:38.413Z,1.60
2022-09-05T01:41:18.296Z,1.60
2022-09-05T01:43:57.023Z,1.67
2022-09-05T01:46:30.591Z,1.90
2022-09-05T01:49:01.799Z,1.60
2022-09-05T01:51:34.362Z,1.60
2022-09-05T01:54:14.125Z,1.67
2022-09-05T01:56:56.410Z,1.37
2022-09-05T01:59:30.439Z,1.83
2022-09-05T02:02:16.766Z,1.60
2022-09-05T02:05:09.083Z,1.70
2022-09-05T02:07:48.185Z,1.77
2022-09-05T02:10:40.610Z,1.87
2022-09-05T02:13:16.649Z,1.90
2022-09-05T02:15:58.987Z,1.70
2022-09-05T02:18:30.993Z,1.63
2022-09-05T02:21:01.532Z,1.83
2022-09-05T02:23:40.753Z,1.80
2022-09-05T02:26:14.391Z,1.40
2022-09-05T02:28:46.906Z,1.80
2022-09-05T02:31:20.087Z,1.80
2022-09-05T02:33:51.245Z,1.60
2022-09-05T02:36:24.694Z,1.50
2022-09-05T02:44:35.866Z,1.80
2022-09-05T02:45:11.424Z,1.60
2022-09-05T02:45:13.857Z,1.70
2022-09-05T02:47:32.503Z,1.57
2022-09-05T02:52:38.123Z,1.57
2022-09-05T02:57:29.754Z,1.67
2022-09-05T02:57:37.963Z,1.97
2022-09-05T02:59:08.996Z,1.77
2022-09-05T03:01:44.085Z,1.60
2022-09-05T03:04:19.898Z,1.30
2022-09-05T03:06:56.323Z,1.50
2022-09-05T03:09:34.558Z,1.70
2022-09-05T03:12:30.314Z,1.43
2022-09-05T03:15:32.117Z,1.80
2022-09-05T03:18:21.659Z,1.37
2022-09-05T03:21:09.151Z,1.60
2022-09-05T03:23:53.809Z,1.57
2022-09-05T03:26:31.322Z,1.30
2022-09-05T03:29:10.010Z,1.60
2022-09-05T03:31:54.403Z,1.60
2022-09-05T03:34:33.989Z,1.40
2022-09-05T03:37:09.705Z,1.60
2022-09-05T03:39:55.145Z,1.50
2022-09-05T03:42:47.603Z,1.60
2022-09-05T03:45:36.981Z,1.33
2022-09-05T03:48:27.922Z,1.40
2022-09-05T03:57:08.629Z,1.60
2022-09-05T03:57:13.048Z,1.60
2022-09-05T03:57:23.791Z,1.43
2022-09-05T04:00:02.590Z,1.43
2022-09-05T04:08:06.745Z,1.60
2022-09-05T04:08:28.338Z,1.20
2022-09-05T04:08:32.458Z,1.40
2022-09-05T04:11:08.374Z,1.50
2022-09-05T04:13:40.063Z,1.20
2022-09-05T04:16:11.576Z,1.33
2022-09-05T04:18:42.820Z,1.37
2022-09-05T04:21:14.196Z,1.30
2022-09-05T04:24:09.482Z,1.20
2022-09-05T04:26:58.634Z,1.40
2022-09-05T04:29:35.767Z,1.50
2022-09-05T04:32:19.122Z,1.60
2022-09-05T04:35:01.107Z,1.60
2022-09-05T04:37:47.899Z,1.43
2022-09-05T04:40:37.621Z,1.47
2022-09-05T04:43:07.672Z,1.20
2022-09-05T04:45:39.503Z,1.13
2022-09-05T04:48:09.550Z,1.30
2022-09-05T04:50:45.415Z,1.23
2022-09-05T04:53:17.485Z,1.20
2022-09-05T04:55:50.729Z,1.30
2022-09-05T04:58:27.599Z,1.30
2022-09-05T05:05:59.680Z,1.03
2022-09-05T05:06:11.904Z,1.50
2022-09-05T05:07:06.034Z,1.40
2022-09-05T05:09:38.990Z,1.40
2022-09-05T05:17:57.331Z,1.43
2022-09-05T05:18:08.287Z,1.50
2022-09-05T05:18:38.632Z,1.33
2022-09-05T05:20:46.673Z,1.20
2022-09-05T05:23:16.235Z,1.47
2022-09-05T05:25:48.264Z,1.13
2022-09-05T05:28:25.106Z,1.40
2022-09-05T05:30:58.313Z,1.40
2022-09-05T05:33:34.455Z,1.40
2022-09-05T05:36:03.900Z,1.37
2022-09-05T05:38:36.758Z,1.50
2022-09-05T05:41:08.853Z,1.50
2022-09-05T05:43:41.810Z,1.50
2022-09-05T05:46:16.449Z,1.40
2022-09-05T05:48:53.795Z,1.30
2022-09-05T05:51:38.329Z,1.43
2022-09-05T05:54:27.465Z,1.30
2022-09-05T05:57:12.570Z,1.20
2022-09-05T05:59:57.640Z,1.30
2022-09-05T06:03:25.815Z,1.27
2022-09-05T06:06:09.825Z,1.23
2022-09-05T06:10:00.440Z,1.20
2022-09-05T06:14:52.189Z,1.40
2022-09-05T06:15:19.637Z,1.27
2022-09-05T06:18:09.129Z,1.20
2022-09-05T06:22:07.297Z,1.37
2022-09-05T06:23:54.437Z,1.47
2022-09-05T06:26:44.723Z,1.43
2022-09-05T06:29:18.578Z,1.40
2022-09-05T06:31:55.818Z,1.33
2022-09-05T06:34:35.469Z,1.13
2022-09-05T06:37:09.822Z,1.10
2022-09-05T06:39:48.860Z,1.40
2022-09-05T06:42:42.226Z,1.30
2022-09-05T06:45:27.366Z,1.33
2022-09-05T06:47:59.110Z,1.50
2022-09-05T06:50:48.178Z,1.37
2022-09-05T06:53:35.688Z,1.53
2022-09-05T06:56:24.100Z,1.70
2022-09-05T06:59:13.373Z,1.50
2022-09-05T07:02:00.720Z,1.70
2022-09-05T07:05:38.728Z,1.70
2022-09-05T07:07:27.916Z,1.37
2022-09-05T07:09:59.516Z,1.53
2022-09-05T07:12:30.910Z,1.30
2022-09-05T07:15:09.474Z,1.60
2022-09-05T07:18:10.095Z,1.50
2022-09-05T07:21:17.994Z,1.40
2022-09-05T07:23:56.501Z,1.70
2022-09-05T07:26:52.169Z,1.60
2022-09-05T07:29:22.546Z,1.60
2022-09-05T07:31:53.610Z,1.70
2022-09-05T07:34:24.567Z,1.77
2022-09-05T07:37:13.787Z,1.63
2022-09-05T07:39:45.951Z,1.40
2022-09-05T07:42:17.984Z,1.30
2022-09-05T07:44:51.871Z,1.33
2022-09-05T07:47:22.937Z,1.40
2022-09-05T07:50:36.469Z,1.10
2022-09-05T07:56:54.488Z,1.00
2022-09-05T07:57:08.676Z,1.10
2022-09-05T07:58:24.943Z,1.07
2022-09-05T08:00:54.222Z,1.30
2022-09-05T08:03:26.455Z,1.20
2022-09-05T08:05:58.290Z,1.20
2022-09-05T08:08:29.060Z,1.07
2022-09-05T08:11:23.335Z,1.20
2022-09-05T08:13:52.689Z,1.33
2022-09-05T08:16:27.832Z,1.10
2022-09-05T08:19:00.236Z,1.47
2022-09-05T08:21:39.715Z,1.40
2022-09-05T08:24:13.922Z,1.27
2022-09-05T08:26:47.208Z,1.20
2022-09-05T08:29:21.130Z,1.20
2022-09-05T08:31:52.846Z,1.10
2022-09-05T08:34:31.362Z,0.97
2022-09-05T08:37:15.169Z,0.90
2022-09-05T08:39:54.229Z,1.00
2022-09-05T08:42:43.991Z,0.97
2022-09-05T08:46:42.372Z,1.10
2022-09-05T08:48:21.423Z,1.10
2022-09-05T08:51:07.615Z,1.00
2022-09-05T08:53:46.675Z,1.10
2022-09-05T08:56:20.704Z,1.17
2022-09-05T08:59:32.483Z,1.10
2022-09-05T09:02:45.283Z,0.80
2022-09-05T09:05:01.813Z,0.90
2022-09-05T09:07:48.054Z,1.00
2022-09-05T09:10:36.519Z,1.00
2022-09-05T09:13:10.959Z,0.80
2022-09-05T09:15:40.636Z,1.00
2022-09-05T09:18:14.965Z,0.90
2022-09-05T09:20:52.953Z,0.80
2022-09-05T09:23:36.453Z,0.80
2022-09-05T09:26:13.497Z,0.70
2022-09-05T09:28:51.383Z,0.73
2022-09-05T09:31:38.455Z,0.83
2022-09-05T09:34:15.785Z,0.80
2022-09-05T09:37:03.800Z,0.90
2022-09-05T09:39:39.760Z,1.10
2022-09-05T09:42:32.818Z,0.73
2022-09-05T09:45:21.610Z,1.00
2022-09-05T09:48:06.177Z,0.90
2022-09-05T09:50:41.875Z,0.90
2022-09-05T09:53:25.487Z,0.87
2022-09-05T09:56:20.867Z,0.90
2022-09-05T09:58:59.181Z,0.80
2022-09-05T10:01:35.845Z,0.80
2022-09-05T10:10:40.438Z,0.90
2022-09-05T10:10:51.337Z,0.70
2022-09-05T10:11:07.811Z,0.95
2022-09-05T10:13:31.747Z,0.83
2022-09-05T10:16:18.227Z,0.80
2022-09-05T10:19:04.005Z,0.87
2022-09-05T10:21:41.354Z,0.80
2022-09-05T10:24:27.653Z,0.73
2022-09-05T10:27:05.181Z,0.63
2022-09-05T10:29:44.677Z,0.70
2022-09-05T10:35:08.727Z,0.87
2022-09-05T10:35:22.502Z,0.80
2022-09-05T10:37:55.092Z,0.70
2022-09-05T10:40:25.557Z,0.80
2022-09-05T10:42:59.706Z,0.90
2022-09-05T10:45:38.298Z,0.70
2022-09-05T10:48:13.737Z,0.87
2022-09-05T10:50:44.837Z,0.90
2022-09-05T10:53:39.317Z,0.87
2022-09-05T10:56:11.526Z,0.63
2022-09-05T11:01:06.927Z,0.80
2022-09-05T11:02:27.305Z,0.73
2022-09-05T11:04:52.966Z,0.70
2022-09-05T11:07:27.808Z,0.80
2022-09-05T11:10:12.670Z,0.73
2022-09-05T11:12:57.604Z,0.70
2022-09-05T11:15:31.690Z,0.87
2022-09-05T11:18:05.130Z,0.90
2022-09-05T11:20:49.238Z,0.80
2022-09-05T11:23:21.115Z,0.80
2022-09-05T11:25:53.685Z,0.80
2022-09-05T11:28:26.962Z,0.67
2022-09-05T11:30:59.536Z,0.80
2022-09-05T11:39:46.814Z,0.77
2022-09-05T11:39:57.628Z,0.80
2022-09-05T11:40:28.269Z,0.87
2022-09-05T11:42:47.489Z,0.60
2022-09-05T11:45:38.403Z,0.63
2022-09-05T11:48:18.298Z,0.90
2022-09-05T11:51:15.374Z,0.83
2022-09-05T11:53:59.635Z,0.90
2022-09-05T11:56:45.745Z,0.90
2022-09-05T11:59:35.465Z,0.80
2022-09-05T12:02:23.876Z,0.83
2022-09-05T12:05:48.891Z,0.73
2022-09-05T12:07:53.090Z,0.80
2022-09-05T12:10:46.725Z,0.80
2022-09-05T12:13:31.941Z,0.77
2022-09-05T12:16:07.689Z,0.70
2022-09-05T12:18:45.707Z,0.80
2022-09-05T12:21:23.449Z,0.87
2022-09-05T12:24:24.238Z,0.80
2022-09-05T12:27:36.296Z,0.80
2022-09-05T12:29:45.571Z,0.83
2022-09-05T12:34:23.506Z,0.80
2022-09-05T12:36:10.116Z,0.97
2022-09-05T12:40:54.910Z,0.73
2022-09-05T12:41:40.805Z,0.70
2022-09-05T12:44:39.908Z,0.82
2022-09-05T12:46:39.958Z,0.80
2022-09-05T12:49:13.658Z,0.70
2022-09-05T12:51:47.693Z,0.80
2022-09-05T12:54:33.241Z,0.80
2022-09-05T13:01:33.323Z,1.00
2022-09-05T13:03:02.132Z,0.90
2022-09-05T13:03:05.549Z,0.70
2022-09-05T13:05:49.829Z,0.80
2022-09-05T13:08:22.438Z,0.80
2022-09-05T13:14:18.856Z,0.80
2022-09-05T13:14:58.832Z,0.80
2022-09-05T13:16:39.517Z,0.63
2022-09-05T13:19:12.590Z,0.70
2022-09-05T13:21:52.601Z,0.90
2022-09-05T13:24:27.775Z,0.70
2022-09-05T13:26:58.798Z,0.90
2022-09-05T13:29:30.028Z,0.77
2022-09-05T13:37:56.535Z,0.80
2022-09-05T13:37:58.802Z,0.70
2022-09-05T13:40:51.927Z,0.90
2022-09-05T13:43:26.532Z,0.80
2022-09-05T13:46:06.184Z,0.70
2022-09-05T13:51:32.277Z,0.75
2022-09-05T13:54:08.249Z,1.02
2022-09-05T13:56:43.123Z,0.80
2022-09-05T13:59:14.206Z,0.90
2022-09-05T14:02:24.672Z,0.80
2022-09-05T14:05:11.088Z,0.90
2022-09-05T14:08:03.240Z,0.70
2022-09-05T14:10:41.222Z,0.60
2022-09-05T14:13:14.084Z,0.80
2022-09-05T14:15:52.323Z,0.90
2022-09-05T14:18:22.769Z,0.70
2022-09-05T14:21:11.106Z,0.80
2022-09-05T14:23:43.618Z,0.80
2022-09-05T14:26:15.138Z,0.70
2022-09-05T14:28:48.018Z,0.77
2022-09-05T14:37:21.293Z,0.80
2022-09-05T14:37:52.711Z,0.90
2022-09-05T14:38:01.114Z,0.80
2022-09-05T14:40:29.807Z,0.83
2022-09-05T14:43:14.177Z,0.87
2022-09-05T14:45:50.813Z,0.80
2022-09-05T14:48:30.501Z,0.90
2022-09-05T14:51:10.245Z,0.80
2022-09-05T14:54:01.443Z,0.90
2022-09-05T14:59:05.823Z,0.73
2022-09-05T15:02:42.069Z,0.70
2022-09-05T15:02:44.576Z,0.60
2022-09-05T15:05:17.972Z,0.60
2022-09-05T15:07:47.299Z,0.70
2022-09-05T15:12:17.099Z,0.70
2022-09-05T15:13:20.346Z,0.70
2022-09-05T15:16:02.436Z,0.65
2022-09-05T15:18:34.416Z,0.70
2022-09-05T15:21:17.698Z,0.60
2022-09-05T15:24:03.304Z,0.60
2022-09-05T15:26:32.950Z,0.70
2022-09-05T15:29:13.536Z,0.63
2022-09-05T15:31:43.230Z,0.52
2022-09-05T15:34:25.587Z,0.70
2022-09-05T15:36:54.703Z,0.60
2022-09-05T15:39:37.625Z,0.60
2022-09-05T15:42:14.131Z,0.45
2022-09-05T15:45:06.225Z,0.52
2022-09-05T15:47:32.252Z,0.65
2022-09-05T15:50:04.965Z,0.55
2022-09-05T15:52:39.539Z,0.70
2022-09-05T15:55:12.145Z,0.60
2022-09-05T15:57:43.285Z,0.60
2022-09-05T16:00:13.637Z,0.80
2022-09-05T16:02:45.457Z,0.60
2022-09-05T16:08:39.755Z,0.50
2022-09-05T16:10:29.649Z,0.50
2022-09-05T16:11:42.657Z,0.57
2022-09-05T16:14:15.724Z,0.70
2022-09-05T16:23:11.715Z,0.60
2022-09-05T16:23:26.994Z,0.53
2022-09-05T16:23:31.431Z,0.50
2022-09-05T16:25:18.565Z,0.70
2022-09-05T16:27:51.967Z,0.70
2022-09-05T16:30:27.669Z,0.60
2022-09-05T16:32:58.533Z,0.70
2022-09-05T16:35:27.361Z,0.77
2022-09-05T16:38:02.218Z,0.50
2022-09-05T16:40:32.810Z,0.60
2022-09-05T16:43:04.485Z,0.70
2022-09-05T16:45:35.256Z,0.63
2022-09-05T16:48:13.686Z,0.70
2022-09-05T16:50:50.164Z,0.70
2022-09-05T16:53:34.378Z,0.70
2022-09-05T16:56:04.635Z,0.70
2022-09-05T16:58:34.975Z,0.70
2022-09-05T17:01:15.363Z,0.87
2022-09-05T17:03:49.491Z,0.60
2022-09-05T17:06:26.063Z,0.80
2022-09-05T17:09:13.444Z,1.00
2022-09-05T17:11:55.988Z,0.80
2022-09-05T17:14:32.902Z,0.70
2022-09-05T17:17:20.177Z,0.63
2022-09-05T17:20:06.368Z,0.70
2022-09-05T17:24:56.709Z,0.63
2022-09-05T17:29:23.729Z,0.70
2022-09-05T17:29:33.327Z,0.90
2022-09-05T17:31:54.288Z,0.63
2022-09-05T17:34:39.337Z,0.80
2022-09-05T17:37:18.247Z,0.73
2022-09-05T17:39:50.301Z,0.70
2022-09-05T17:42:30.449Z,0.70
2022-09-05T17:45:07.642Z,0.63
2022-09-05T17:47:41.537Z,0.70
2022-09-05T17:50:14.893Z,0.80
2022-09-05T17:52:59.260Z,0.90
2022-09-05T17:55:59.602Z,0.80
2022-09-05T17:58:49.018Z,0.80
2022-09-05T18:01:26.377Z,0.67
2022-09-05T18:04:06.827Z,0.83
2022-09-05T18:06:54.022Z,0.77
2022-09-05T18:10:12.117Z,0.70
2022-09-05T18:13:13.625Z,1.23
2022-09-05T18:15:45.799Z,0.70
2022-09-05T18:19:28.027Z,0.70
2022-09-05T18:21:25.803Z,0.90
2022-09-05T18:24:02.497Z,0.90
2022-09-05T18:26:39.211Z,0.87
2022-09-05T18:29:14.649Z,0.83
2022-09-05T18:31:59.473Z,0.70
2022-09-05T18:34:58.218Z,0.70
2022-09-05T18:38:02.326Z,0.87
2022-09-05T18:40:36.901Z,1.00
2022-09-05T18:43:10.840Z,0.67
2022-09-05T18:45:52.429Z,0.90
2022-09-05T18:48:25.562Z,0.57
2022-09-05T18:51:13.377Z,0.80
2022-09-05T18:53:47.664Z,0.70
2022-09-05T18:57:02.974Z,0.80
2022-09-05T18:59:29.274Z,0.70
2022-09-05T19:02:04.771Z,0.80
2022-09-05T19:04:41.491Z,0.87
2022-09-05T19:07:13.647Z,1.03
2022-09-05T19:09:59.253Z,0.70
2022-09-05T19:12:40.878Z,0.70
2022-09-05T19:15:18.958Z,0.80
2022-09-05T19:17:54.447Z,0.83
2022-09-05T19:20:34.322Z,0.80
2022-09-05T19:23:09.679Z,0.90
2022-09-05T19:25:41.098Z,0.77
2022-09-05T19:33:59.709Z,0.80
2022-09-05T19:36:53.007Z,0.80
2022-09-05T19:37:03.962Z,0.80
2022-09-05T19:37:08.546Z,0.90
2022-09-05T19:42:08.144Z,0.60
2022-09-05T19:47:41.034Z,0.90
2022-09-05T19:47:41.508Z,0.93
2022-09-05T19:48:17.802Z,0.90
2022-09-05T19:50:47.418Z,0.97
2022-09-05T19:53:17.116Z,0.80
2022-09-05T19:55:45.831Z,0.90
2022-09-05T19:58:28.078Z,0.80
2022-09-05T20:01:04.233Z,0.70
2022-09-05T20:03:39.259Z,0.80
2022-09-05T20:06:26.729Z,1.00
2022-09-05T20:09:09.201Z,0.80
2022-09-05T20:11:46.462Z,0.70
2022-09-05T20:14:19.434Z,0.67
2022-09-05T20:16:50.074Z,0.80
2022-09-05T20:19:33.842Z,0.70
2022-09-05T20:22:31.812Z,0.90
2022-09-05T20:24:52.724Z,0.70
2022-09-05T20:27:23.884Z,0.80
2022-09-05T20:29:57.155Z,0.80
2022-09-05T20:32:38.934Z,0.70
2022-09-05T20:39:03.941Z,0.70
2022-09-05T20:43:15.405Z,0.90
2022-09-05T20:43:30.342Z,0.80
2022-09-05T20:43:52.749Z,0.83
2022-09-05T20:54:04.368Z,0.83
2022-09-05T20:54:18.040Z,0.73
2022-09-05T20:54:22.767Z,0.80
2022-09-05T20:55:38.882Z,0.80
2022-09-05T20:58:10.476Z,0.70
2022-09-05T21:00:39.726Z,0.80
2022-09-05T21:03:09.190Z,0.77
2022-09-05T21:05:39.977Z,0.90
2022-09-05T21:08:35.443Z,0.70
2022-09-05T21:11:06.397Z,1.07
2022-09-05T21:13:35.853Z,1.00
2022-09-05T21:16:15.093Z,0.70
2022-09-05T21:18:44.214Z,1.00
2022-09-05T21:21:28.282Z,0.80
2022-09-05T21:24:15.849Z,0.80
2022-09-05T21:26:49.360Z,0.80
2022-09-05T21:29:18.949Z,0.87
2022-09-05T21:31:50.797Z,0.70
2022-09-05T21:34:25.433Z,0.80
2022-09-05T21:37:06.808Z,0.70
2022-09-05T21:39:38.342Z,0.80
2022-09-05T21:42:42.803Z,0.83
2022-09-05T21:47:44.822Z,0.70
2022-09-05T21:47:53.808Z,0.83
2022-09-05T21:50:30.861Z,0.80
2022-09-05T21:54:16.103Z,0.87
2022-09-05T21:59:14.831Z,0.80
2022-09-05T21:59:20.447Z,0.80
2022-09-05T22:01:51.447Z,0.70
2022-09-05T22:04:21.191Z,0.70
2022-09-05T22:06:49.874Z,1.00
2022-09-05T22:09:18.890Z,0.70
2022-09-05T22:11:50.574Z,0.80
2022-09-05T22:14:20.715Z,0.90
2022-09-05T22:16:50.355Z,2.33
2022-09-05T22:19:23.035Z,4.70
2022-09-05T22:21:52.918Z,0.90
2022-09-05T22:24:21.508Z,1.00
2022-09-05T22:27:11.355Z,0.97
2022-09-05T22:29:41.008Z,0.80
2022-09-05T22:32:09.999Z,0.80
2022-09-05T22:34:38.508Z,0.90
2022-09-05T22:37:07.141Z,0.90
2022-09-05T22:39:37.067Z,0.90
2022-09-05T22:42:10.740Z,0.80
2022-09-05T22:44:41.586Z,0.80
2022-09-05T22:47:10.822Z,0.80
2022-09-05T22:49:39.525Z,3.57
2022-09-05T22:52:08.657Z,1.00
2022-09-05T22:54:37.351Z,1.10
2022-09-05T22:57:06.483Z,0.83
2022-09-05T22:59:35.007Z,0.90
2022-09-05T23:02:05.044Z,0.80
2022-09-05T23:04:33.632Z,1.00
2022-09-05T23:07:03.791Z,0.90
2022-09-05T23:09:32.334Z,0.73
2022-09-05T23:12:00.783Z,0.90
2022-09-05T23:14:29.312Z,0.90
2022-09-05T23:16:57.870Z,0.60
2022-09-05T23:19:27.726Z,0.80
2022-09-05T23:21:56.305Z,0.90
2022-09-05T23:24:25.017Z,1.07
2022-09-05T23:26:53.479Z,1.00
2022-09-05T23:29:22.054Z,1.10
2022-09-05T23:31:50.634Z,0.93
2022-09-05T23:34:19.114Z,0.70
2022-09-05T23:36:49.099Z,1.07
2022-09-05T23:39:17.782Z,0.97
2022-09-05T23:41:46.298Z,0.83
2022-09-05T23:44:14.860Z,0.87
2022-09-05T23:46:43.508Z,1.00
2022-09-05T23:49:12.014Z,1.00
2022-09-05T23:51:40.605Z,0.90
2022-09-05T23:54:10.577Z,1.00
2022-09-05T23:56:39.058Z,0.90
2022-09-05T23:59:07.682Z,0.97
